Time;durP1;ratioP1;P1;durP2;ratioP2;P2;SDS_P1;SDS_P2;PMS_P1;PMS_P2;Temp;Humidity;BMP_temperature;BMP_pressure;BME280_temperature;BME280_humidity;BME280_pressure;Samples;Min_cycle;Max_cycle;Signal;HPM_P1;HPM_P2
2022/06/24 00:01:42;;;;;;;4.53;1.52;;;;;;;;;;5029825;28;20033;-78
2022/06/24 00:04:08;;;;;;;4.28;1.50;;;;;;;;;;5032057;28;20037;-78
2022/06/24 00:06:45;;;;;;;3.30;1.33;;;;;;;;;;5031530;28;20447;-77
2022/06/24 00:09:11;;;;;;;6.28;1.60;;;;;;;;;;5030937;28;20083;-80
2022/06/24 00:11:37;;;;;;;3.42;1.35;;;;;;;;;;5022311;28;20021;-79
2022/06/24 00:14:08;;;;;;;4.95;1.50;;;;;;;;;;5018114;28;20024;-79
2022/06/24 00:17:00;;;;;;;5.07;1.20;;;;;;;;;;5030675;28;20038;-78
2022/06/24 00:19:27;;;;;;;3.33;1.17;;;;;;;;;;5030168;28;20021;-77
2022/06/24 00:22:05;;;;;;;3.20;1.65;;;;;;;;;;5031503;28;20029;-77
2022/06/24 00:24:31;;;;;;;5.53;1.60;;;;;;;;;;5031391;28;20495;-77
2022/06/24 00:26:57;;;;;;;5.43;1.35;;;;;;;;;;5031326;28;20547;-77
2022/06/24 00:29:26;;;;;;;4.15;1.52;;;;;;;;;;5031313;28;20108;-78
2022/06/24 00:32:08;;;;;;;5.60;1.60;;;;;;;;;;5031361;28;20034;-78
2022/06/24 00:34:34;;;;;;;;;;;;;;;;;;5030469;28;20029;-77
2022/06/24 00:37:25;;;;;;;3.88;1.83;;;;;;;;;;5031159;28;19913;-77
2022/06/24 00:40:14;;;;;;;4.82;1.30;;;;;;;;;;5031254;28;20115;-76
2022/06/24 00:42:45;;;;;;;4.15;1.23;;;;;;;;;;5029400;28;20037;-78
2022/06/24 00:45:51;;;;;;;3.90;1.27;;;;;;;;;;5031115;28;20025;-77
2022/06/24 00:48:20;;;;;;;4.18;1.58;;;;;;;;;;4985358;28;20034;-77
2022/06/24 00:50:47;;;;;;;4.90;1.40;;;;;;;;;;5022574;28;20038;-79
2022/06/24 00:53:13;;;;;;;4.00;1.33;;;;;;;;;;5019997;28;20034;-76
2022/06/24 00:55:42;;;;;;;4.75;1.15;;;;;;;;;;5030710;28;20021;-77
2022/06/24 00:58:16;;;;;;;4.00;1.38;;;;;;;;;;5028895;28;20021;-78
2022/06/24 01:00:49;;;;;;;5.45;1.67;;;;;;;;;;5030455;28;20025;-80
2022/06/24 01:03:14;;;;;;;4.47;1.95;;;;;;;;;;5021425;28;20033;-78
2022/06/24 01:05:41;;;;;;;5.20;1.38;;;;;;;;;;5010362;28;20026;-78
2022/06/24 01:08:09;;;;;;;4.20;1.50;;;;;;;;;;5026656;28;20029;-77
2022/06/24 01:10:35;;;;;;;6.40;1.65;;;;;;;;;;5013873;28;20535;-78
2022/06/24 01:13:01;;;;;;;3.60;1.17;;;;;;;;;;5024120;28;20112;-77
2022/06/24 01:15:26;;;;;;;2.80;1.30;;;;;;;;;;5028096;28;20032;-78
2022/06/24 01:17:52;;;;;;;5.13;1.60;;;;;;;;;;5028980;28;20030;-78
2022/06/24 01:20:17;;;;;;;5.55;1.40;;;;;;;;;;5021267;28;20445;-77
2022/06/24 01:22:43;;;;;;;4.32;1.50;;;;;;;;;;5029773;28;20029;-78
2022/06/24 01:25:10;;;;;;;5.30;1.90;;;;;;;;;;5028928;28;20025;-78
2022/06/24 01:27:36;;;;;;;4.63;1.50;;;;;;;;;;5021597;28;20368;-78
2022/06/24 01:30:03;;;;;;;6.25;1.38;;;;;;;;;;5029176;28;20032;-77
2022/06/24 01:32:29;;;;;;;5.38;1.63;;;;;;;;;;5028708;28;20071;-78
2022/06/24 01:34:56;;;;;;;2.10;1.20;;;;;;;;;;5025085;28;20414;-78
2022/06/24 01:37:21;;;;;;;5.68;1.67;;;;;;;;;;5029362;28;20036;-78
2022/06/24 01:39:47;;;;;;;3.22;1.20;;;;;;;;;;5028534;28;20334;-78
2022/06/24 01:42:12;;;;;;;3.42;1.45;;;;;;;;;;5029708;28;20577;-77
2022/06/24 01:44:37;;;;;;;4.07;1.38;;;;;;;;;;5026392;28;21458;-78
2022/06/24 01:47:03;;;;;;;3.90;1.40;;;;;;;;;;5028811;28;20271;-78
2022/06/24 01:49:28;;;;;;;3.92;1.80;;;;;;;;;;5018844;28;20033;-76
2022/06/24 01:51:56;;;;;;;4.68;1.30;;;;;;;;;;5029046;28;20483;-81
2022/06/24 01:54:21;;;;;;;4.80;1.42;;;;;;;;;;5020329;28;20034;-78
2022/06/24 01:56:47;;;;;;;2.15;1.15;;;;;;;;;;5029536;28;20033;-77
2022/06/24 01:59:14;;;;;;;5.53;1.52;;;;;;;;;;5019331;28;20029;-78
2022/06/24 02:01:40;;;;;;;5.53;1.30;;;;;;;;;;5025171;28;20120;-77
2022/06/24 02:04:05;;;;;;;4.35;1.42;;;;;;;;;;5028700;28;20029;-78
2022/06/24 02:06:30;;;;;;;2.75;1.30;;;;;;;;;;5025111;28;20400;-78
2022/06/24 02:08:56;;;;;;;3.88;1.40;;;;;;;;;;5021335;28;20407;-80
2022/06/24 02:14:09;;;;;;;3.08;1.40;;;;;;;;;;5021109;28;20036;-76
2022/06/24 02:16:36;;;;;;;3.78;1.77;;;;;;;;;;5017191;28;20080;-77
2022/06/24 02:19:02;;;;;;;4.78;1.50;;;;;;;;;;5022638;28;20033;-77
2022/06/24 02:21:27;;;;;;;3.58;1.42;;;;;;;;;;5027710;28;20399;-76
2022/06/24 02:23:53;;;;;;;3.42;1.50;;;;;;;;;;5020367;28;20394;-77
2022/06/24 02:26:20;;;;;;;3.80;1.88;;;;;;;;;;5028462;28;20531;-77
2022/06/24 02:28:45;;;;;;;3.35;1.85;;;;;;;;;;5028104;28;20033;-76
2022/06/24 02:31:10;;;;;;;6.28;1.80;;;;;;;;;;5028703;28;20107;-77
2022/06/24 02:33:36;;;;;;;5.18;1.95;;;;;;;;;;5019246;28;20029;-77
2022/06/24 02:36:02;;;;;;;5.40;2.00;;;;;;;;;;5027999;28;20394;-79
2022/06/24 02:38:28;;;;;;;5.40;1.75;;;;;;;;;;5026713;28;20467;-77
2022/06/24 02:40:53;;;;;;;4.10;1.80;;;;;;;;;;5020802;28;20036;-75
2022/06/24 02:43:20;;;;;;;4.57;1.90;;;;;;;;;;5028250;28;20375;-76
2022/06/24 02:45:49;;;;;;;3.80;1.90;;;;;;;;;;5020574;28;20033;-75
2022/06/24 02:48:16;;;;;;;4.57;1.60;;;;;;;;;;5019553;28;20041;-76
2022/06/24 02:50:44;;;;;;;3.85;1.95;;;;;;;;;;5026657;28;20018;-78
2022/06/24 02:53:10;;;;;;;5.70;2.00;;;;;;;;;;5027794;28;20021;-78
2022/06/24 02:55:36;;;;;;;7.15;1.90;;;;;;;;;;5025326;28;20029;-76
2022/06/24 02:58:01;;;;;;;2.63;1.60;;;;;;;;;;5022651;28;20167;-74
2022/06/24 03:00:27;;;;;;;4.50;1.70;;;;;;;;;;5026620;28;20120;-77
2022/06/24 03:02:52;;;;;;;3.85;1.80;;;;;;;;;;5018572;28;20407;-78
2022/06/24 03:05:17;;;;;;;4.10;2.05;;;;;;;;;;5026850;28;20025;-77
2022/06/24 03:07:43;;;;;;;3.95;1.70;;;;;;;;;;5028417;28;20033;-79
2022/06/24 03:10:09;;;;;;;2.20;1.60;;;;;;;;;;5029149;28;20021;-78
2022/06/24 03:12:34;;;;;;;6.57;1.88;;;;;;;;;;5026774;28;20032;-76
2022/06/24 03:14:59;;;;;;;5.05;1.77;;;;;;;;;;5029547;28;20029;-77
2022/06/24 03:17:25;;;;;;;4.95;2.00;;;;;;;;;;5032887;28;20021;-78
2022/06/24 03:19:50;;;;;;;4.95;2.38;;;;;;;;;;5032979;28;20032;-77
2022/06/24 03:22:16;;;;;;;3.88;1.98;;;;;;;;;;5032606;28;20639;-77
2022/06/24 03:24:41;;;;;;;5.13;2.03;;;;;;;;;;5032576;28;20335;-76
2022/06/24 03:27:06;;;;;;;3.72;1.70;;;;;;;;;;5031232;28;20021;-79
2022/06/24 03:29:32;;;;;;;5.32;2.00;;;;;;;;;;5031839;28;20090;-76
2022/06/24 03:31:57;;;;;;;4.07;1.88;;;;;;;;;;5032216;28;20075;-79
2022/06/24 03:34:22;;;;;;;2.85;1.77;;;;;;;;;;5033976;28;20039;-76
2022/06/24 03:36:49;;;;;;;4.57;2.10;;;;;;;;;;5032742;28;20025;-76
2022/06/24 03:39:14;;;;;;;4.95;2.00;;;;;;;;;;5032105;28;20029;-77
2022/06/24 03:41:39;;;;;;;7.40;1.73;;;;;;;;;;5031884;28;20087;-77
2022/06/24 03:44:05;;;;;;;4.57;2.08;;;;;;;;;;5029994;28;20025;-77
2022/06/24 03:46:30;;;;;;;5.78;2.17;;;;;;;;;;5032312;28;20478;-75
2022/06/24 03:48:55;;;;;;;6.82;2.20;;;;;;;;;;5031745;28;20029;-75
2022/06/24 03:51:20;;;;;;;6.53;2.38;;;;;;;;;;5032335;28;20470;-78
2022/06/24 03:53:46;;;;;;;3.67;1.90;;;;;;;;;;5032112;28;20033;-74
2022/06/24 03:56:11;;;;;;;4.20;2.15;;;;;;;;;;5031807;28;20029;-78
2022/06/24 03:58:36;;;;;;;5.90;2.03;;;;;;;;;;5029362;28;20021;-78
2022/06/24 04:01:03;;;;;;;4.03;1.90;;;;;;;;;;5031566;28;20072;-79
2022/06/24 04:03:28;;;;;;;4.85;1.92;;;;;;;;;;5030973;28;20067;-77
2022/06/24 04:05:54;;;;;;;3.35;1.67;;;;;;;;;;5031230;28;20080;-78
2022/06/24 04:08:19;;;;;;;2.88;1.70;;;;;;;;;;5031446;28;20045;-75
2022/06/24 04:10:44;;;;;;;6.07;1.90;;;;;;;;;;5031551;28;20160;-76
2022/06/24 04:13:10;;;;;;;4.28;2.25;;;;;;;;;;5030179;28;20032;-76
2022/06/24 04:15:35;;;;;;;2.92;1.50;;;;;;;;;;5030971;28;20502;-75
2022/06/24 04:18:00;;;;;;;4.30;1.75;;;;;;;;;;5022820;28;20036;-76
2022/06/24 04:20:26;;;;;;;3.28;1.40;;;;;;;;;;5022840;28;20025;-77
2022/06/24 04:22:51;;;;;;;1.52;1.17;;;;;;;;;;5031362;28;20029;-77
2022/06/24 04:25:17;;;;;;;2.97;1.17;;;;;;;;;;5031229;28;20486;-77
2022/06/24 04:27:42;;;;;;;3.53;1.00;;;;;;;;;;5031117;28;20029;-74
2022/06/24 04:30:10;;;;;;;1.33;1.00;;;;;;;;;;5028081;28;20459;-77
2022/06/24 04:32:37;;;;;;;3.70;1.13;;;;;;;;;;5025970;28;21448;-78
2022/06/24 04:35:03;;;;;;;1.88;1.15;;;;;;;;;;5027904;28;20483;-77
2022/06/24 04:37:29;;;;;;;1.85;1.25;;;;;;;;;;5026949;28;20518;-74
2022/06/24 04:39:57;;;;;;;2.30;1.73;;;;;;;;;;5030502;28;20029;-72
2022/06/24 04:42:22;;;;;;;4.13;1.10;;;;;;;;;;5027946;28;20025;-72
2022/06/24 04:44:47;;;;;;;2.00;1.27;;;;;;;;;;5030193;28;20368;-75
2022/06/24 04:47:12;;;;;;;1.67;1.30;;;;;;;;;;5025226;28;20068;-75
2022/06/24 04:49:38;;;;;;;1.88;1.65;;;;;;;;;;5029148;28;20030;-76
2022/06/24 04:52:04;;;;;;;1.85;1.58;;;;;;;;;;5030923;28;20036;-76
2022/06/24 04:54:29;;;;;;;2.25;1.30;;;;;;;;;;5030473;28;20128;-77
2022/06/24 04:56:55;;;;;;;1.80;1.55;;;;;;;;;;5030765;28;20033;-75
2022/06/24 04:59:20;;;;;;;3.05;1.45;;;;;;;;;;5030388;28;20044;-75
2022/06/24 05:01:45;;;;;;;1.73;1.27;;;;;;;;;;5028635;28;20030;-74
2022/06/24 05:04:13;;;;;;;3.67;1.60;;;;;;;;;;5029879;28;20371;-77
2022/06/24 05:06:38;;;;;;;4.28;1.60;;;;;;;;;;5030391;28;20026;-75
2022/06/24 05:09:03;;;;;;;1.40;1.30;;;;;;;;;;5030121;28;20108;-76
2022/06/24 05:11:28;;;;;;;1.75;1.40;;;;;;;;;;5030712;28;20018;-75
2022/06/24 05:13:54;;;;;;;2.55;1.40;;;;;;;;;;5029910;28;20475;-74
2022/06/24 05:16:19;;;;;;;2.28;1.45;;;;;;;;;;5029227;28;20037;-77
2022/06/24 05:18:44;;;;;;;2.33;1.50;;;;;;;;;;5029762;28;20025;-75
2022/06/24 05:21:10;;;;;;;4.32;1.75;;;;;;;;;;5029126;28;20377;-76
2022/06/24 05:23:35;;;;;;;1.58;1.48;;;;;;;;;;5029903;28;20486;-76
2022/06/24 05:26:00;;;;;;;2.40;1.73;;;;;;;;;;5030087;28;20119;-79
2022/06/24 05:28:26;;;;;;;2.75;1.80;;;;;;;;;;5030775;28;20094;-75
2022/06/24 05:30:55;;;;;;;3.42;1.85;;;;;;;;;;5028497;28;20116;-74
2022/06/24 05:33:21;;;;;;;3.60;1.95;;;;;;;;;;5028646;28;20716;-77
2022/06/24 05:35:46;;;;;;;2.95;1.73;;;;;;;;;;5029827;28;20021;-76
2022/06/24 05:38:11;;;;;;;3.47;2.00;;;;;;;;;;5029293;28;20021;-76
2022/06/24 05:40:37;;;;;;;2.28;1.60;;;;;;;;;;5030363;28;20657;-78
2022/06/24 05:43:02;;;;;;;3.20;1.77;;;;;;;;;;5030084;28;20032;-77
2022/06/24 05:45:27;;;;;;;2.03;1.73;;;;;;;;;;5027878;28;20466;-76
2022/06/24 05:47:52;;;;;;;2.10;1.70;;;;;;;;;;5028003;28;20506;-76
2022/06/24 05:50:18;;;;;;;2.60;1.73;;;;;;;;;;5028299;28;20075;-75
2022/06/24 05:55:27;;;;;;;2.42;1.75;;;;;;;;;;5029611;28;20399;-78
2022/06/24 05:57:52;;;;;;;3.45;2.17;;;;;;;;;;5029232;28;20025;-74
2022/06/24 06:00:18;;;;;;;3.05;2.30;;;;;;;;;;5027859;28;20022;-75
2022/06/24 06:02:43;;;;;;;5.25;2.10;;;;;;;;;;5020214;28;20017;-74
2022/06/24 06:05:08;;;;;;;3.60;1.58;;;;;;;;;;5021379;28;20223;-76
2022/06/24 06:07:34;;;;;;;2.50;1.65;;;;;;;;;;5020692;28;20132;-75
2022/06/24 06:09:59;;;;;;;2.72;1.73;;;;;;;;;;5013156;28;20049;-75
2022/06/24 06:12:24;;;;;;;3.35;2.13;;;;;;;;;;5026735;28;20104;-76
2022/06/24 06:14:50;;;;;;;3.22;1.73;;;;;;;;;;5027300;28;20948;-74
2022/06/24 06:17:15;;;;;;;2.30;1.80;;;;;;;;;;5020641;28;20381;-77
2022/06/24 06:19:40;;;;;;;3.55;2.00;;;;;;;;;;5020631;28;20038;-77
2022/06/24 06:22:06;;;;;;;2.67;2.10;;;;;;;;;;5020213;28;20121;-75
2022/06/24 06:24:31;;;;;;;3.38;1.92;;;;;;;;;;5021960;28;20108;-75
2022/06/24 06:26:57;;;;;;;3.33;1.85;;;;;;;;;;5026645;28;20028;-75
2022/06/24 06:29:23;;;;;;;3.67;2.00;;;;;;;;;;5009675;28;20029;-74
2022/06/24 06:31:50;;;;;;;3.20;1.80;;;;;;;;;;5023907;28;20654;-74
2022/06/24 06:34:16;;;;;;;2.25;1.80;;;;;;;;;;5023325;28;20017;-74
2022/06/24 06:36:42;;;;;;;3.10;1.90;;;;;;;;;;5022015;28;20036;-74
2022/06/24 06:39:07;;;;;;;4.43;1.90;;;;;;;;;;5022529;28;20598;-74
2022/06/24 06:41:32;;;;;;;4.50;1.90;;;;;;;;;;5023452;28;20032;-73
2022/06/24 06:43:57;;;;;;;2.20;1.80;;;;;;;;;;5024577;28;20119;-76
2022/06/24 06:46:23;;;;;;;1.95;1.65;;;;;;;;;;5020592;28;20059;-74
2022/06/24 06:48:48;;;;;;;1.98;1.42;;;;;;;;;;5019382;28;20022;-75
2022/06/24 06:51:13;;;;;;;1.80;1.70;;;;;;;;;;5024273;28;20071;-74
2022/06/24 06:53:39;;;;;;;2.58;1.90;;;;;;;;;;5024240;28;20026;-74
2022/06/24 06:56:04;;;;;;;4.50;1.70;;;;;;;;;;5021379;28;20036;-74
2022/06/24 06:58:29;;;;;;;2.63;1.80;;;;;;;;;;5022797;28;20040;-73
2022/06/24 07:00:55;;;;;;;2.70;1.60;;;;;;;;;;5022663;28;20495;-75
2022/06/24 07:03:20;;;;;;;2.47;1.77;;;;;;;;;;5021178;28;20398;-75
2022/06/24 07:05:46;;;;;;;2.00;1.70;;;;;;;;;;5017844;28;20026;-76
2022/06/24 07:08:13;;;;;;;2.88;1.83;;;;;;;;;;5013841;28;20095;-76
2022/06/24 07:10:39;;;;;;;3.15;1.70;;;;;;;;;;5022274;28;20053;-76
2022/06/24 07:13:05;;;;;;;2.53;1.60;;;;;;;;;;5023659;28;20112;-75
2022/06/24 07:15:30;;;;;;;3.40;1.70;;;;;;;;;;5022270;28;20126;-75
2022/06/24 07:17:55;;;;;;;1.90;1.50;;;;;;;;;;5024660;28;20033;-76
2022/06/24 07:20:21;;;;;;;1.70;1.60;;;;;;;;;;5021540;28;20095;-74
2022/06/24 07:22:46;;;;;;;1.85;1.58;;;;;;;;;;5023444;28;20618;-76
2022/06/24 07:25:11;;;;;;;4.53;1.58;;;;;;;;;;5021612;28;20473;-74
2022/06/24 07:27:37;;;;;;;3.35;2.25;;;;;;;;;;5023486;28;20025;-74
2022/06/24 07:30:04;;;;;;;1.70;1.60;;;;;;;;;;5014813;28;20021;-74
2022/06/24 07:32:29;;;;;;;2.08;1.58;;;;;;;;;;5021712;28;20037;-75
2022/06/24 07:34:54;;;;;;;1.73;1.63;;;;;;;;;;5021172;28;20075;-73
2022/06/24 07:37:20;;;;;;;2.03;1.58;;;;;;;;;;5023756;28;20116;-75
2022/06/24 07:39:45;;;;;;;1.88;1.58;;;;;;;;;;5023070;28;20033;-72
2022/06/24 07:42:10;;;;;;;2.10;1.42;;;;;;;;;;5023121;28;20083;-72
2022/06/24 07:44:35;;;;;;;3.08;1.63;;;;;;;;;;5022655;28;20040;-72
2022/06/24 07:47:01;;;;;;;1.77;1.45;;;;;;;;;;5019392;28;20037;-73
2022/06/24 07:49:26;;;;;;;3.78;1.80;;;;;;;;;;5021866;28;20104;-74
2022/06/24 07:51:51;;;;;;;3.92;1.83;;;;;;;;;;5023450;28;20025;-76
2022/06/24 07:54:17;;;;;;;3.47;1.60;;;;;;;;;;5022824;28;20116;-76
2022/06/24 07:59:37;;;;;;;5.28;1.80;;;;;;;;;;5006840;28;20056;-74
2022/06/24 08:02:06;;;;;;;2.47;1.55;;;;;;;;;;5023495;28;20033;-73
2022/06/24 08:04:31;;;;;;;3.03;1.90;;;;;;;;;;5026483;28;20326;-74
2022/06/24 08:06:57;;;;;;;2.00;1.90;;;;;;;;;;5025033;28;20044;-74
2022/06/24 08:09:25;;;;;;;1.92;1.80;;;;;;;;;;5024416;28;20030;-75
2022/06/24 08:11:52;;;;;;;2.67;1.70;;;;;;;;;;5025454;28;20185;-74
2022/06/24 08:14:17;;;;;;;4.22;1.70;;;;;;;;;;5026047;28;20033;-74
2022/06/24 08:16:43;;;;;;;2.35;1.73;;;;;;;;;;5026464;28;20025;-74
2022/06/24 08:19:08;;;;;;;5.00;1.73;;;;;;;;;;5023672;28;20052;-74
2022/06/24 08:21:34;;;;;;;3.33;1.75;;;;;;;;;;5025058;28;20490;-73
2022/06/24 08:23:59;;;;;;;1.60;1.50;;;;;;;;;;5025757;28;20048;-73
2022/06/24 08:26:25;;;;;;;3.60;1.50;;;;;;;;;;5026232;28;20022;-74
2022/06/24 08:28:51;;;;;;;2.15;1.40;;;;;;;;;;5023788;28;20028;-73
2022/06/24 08:31:16;;;;;;;1.83;1.40;;;;;;;;;;5027802;28;20021;-76
2022/06/24 08:33:41;;;;;;;4.00;1.75;;;;;;;;;;5027633;28;20131;-76
2022/06/24 08:36:07;;;;;;;1.77;1.58;;;;;;;;;;5026382;28;20099;-76
2022/06/24 08:38:32;;;;;;;2.03;1.50;;;;;;;;;;5025941;28;20620;-75
2022/06/24 08:41:03;;;;;;;1.63;1.50;;;;;;;;;;5027205;28;20033;-75
2022/06/24 08:43:34;;;;;;;1.80;1.50;;;;;;;;;;5024543;28;20033;-75
2022/06/24 08:46:01;;;;;;;1.60;1.50;;;;;;;;;;5025457;28;20025;-77
2022/06/24 08:48:27;;;;;;;2.45;1.60;;;;;;;;;;5025889;28;20511;-79
2022/06/24 08:50:53;;;;;;;2.28;1.40;;;;;;;;;;5026902;28;20022;-77
2022/06/24 08:53:21;;;;;;;3.13;1.30;;;;;;;;;;5024809;28;20039;-73
2022/06/24 08:55:50;;;;;;;2.55;1.88;;;;;;;;;;5024217;28;20044;-74
2022/06/24 08:58:16;;;;;;;2.13;1.40;;;;;;;;;;5024105;28;20479;-72
2022/06/24 09:00:41;;;;;;;3.47;1.90;;;;;;;;;;5023608;28;20038;-75
2022/06/24 09:03:07;;;;;;;2.25;1.30;;;;;;;;;;5025453;28;20026;-77
2022/06/24 09:05:33;;;;;;;3.33;1.90;;;;;;;;;;5024281;28;20168;-73
2022/06/24 09:08:10;;;;;;;3.20;1.70;;;;;;;;;;5023929;28;20482;-76
2022/06/24 09:10:38;;;;;;;2.17;1.63;;;;;;;;;;5024642;28;20021;-75
2022/06/24 09:13:04;;;;;;;3.83;1.80;;;;;;;;;;5023024;28;20032;-79
2022/06/24 09:15:30;;;;;;;3.80;1.60;;;;;;;;;;5024993;28;20349;-78
2022/06/24 09:17:55;;;;;;;4.10;1.48;;;;;;;;;;5026006;28;20026;-78
2022/06/24 09:20:23;;;;;;;2.00;1.48;;;;;;;;;;5024791;28;20029;-77
2022/06/24 09:22:50;;;;;;;2.45;1.55;;;;;;;;;;5025124;28;20036;-76
2022/06/24 09:25:15;;;;;;;2.45;1.30;;;;;;;;;;5026317;28;20213;-76
2022/06/24 09:27:46;;;;;;;1.83;1.40;;;;;;;;;;5023892;28;20041;-76
2022/06/24 09:30:12;;;;;;;2.67;1.40;;;;;;;;;;5023813;28;20036;-74
2022/06/24 09:32:54;;;;;;;1.42;1.17;;;;;;;;;;5027004;28;20037;-76
2022/06/24 09:35:22;;;;;;;1.67;1.15;;;;;;;;;;5023936;28;20065;-75
2022/06/24 09:37:49;;;;;;;4.38;1.40;;;;;;;;;;5025204;28;20718;-74
2022/06/24 09:40:16;;;;;;;1.27;1.10;;;;;;;;;;5022262;28;20116;-75
2022/06/24 09:42:42;;;;;;;4.82;1.30;;;;;;;;;;5018669;28;20030;-74
2022/06/24 09:45:07;;;;;;;1.42;1.33;;;;;;;;;;5022459;28;20115;-75
2022/06/24 09:47:39;;;;;;;3.17;1.52;;;;;;;;;;5023855;28;20529;-77
2022/06/24 09:50:05;;;;;;;1.50;1.30;;;;;;;;;;5024624;28;20518;-76
2022/06/24 09:52:31;;;;;;;2.78;1.60;;;;;;;;;;5025658;28;20056;-75
2022/06/24 09:54:57;;;;;;;3.53;1.50;;;;;;;;;;5022544;28;20041;-75
2022/06/24 09:57:23;;;;;;;1.98;1.48;;;;;;;;;;5024810;28;20067;-78
2022/06/24 10:02:34;;;;;;;1.42;1.30;;;;;;;;;;5022379;28;20036;-76
2022/06/24 10:05:02;;;;;;;2.65;1.50;;;;;;;;;;5023792;28;20037;-77
2022/06/24 10:07:33;;;;;;;3.25;1.42;;;;;;;;;;5024797;28;20426;-78
2022/06/24 10:10:01;;;;;;;2.35;1.30;;;;;;;;;;5021565;28;20039;-77
2022/06/24 10:12:28;;;;;;;2.45;1.30;;;;;;;;;;5025963;28;20471;-75
2022/06/24 10:14:56;;;;;;;2.63;1.40;;;;;;;;;;5023907;28;20044;-75
2022/06/24 10:17:22;;;;;;;3.92;1.58;;;;;;;;;;5021569;28;20508;-74
2022/06/24 10:19:48;;;;;;;2.50;1.45;;;;;;;;;;5022937;28;20202;-76
2022/06/24 10:22:42;;;;;;;2.45;1.35;;;;;;;;;;5019960;28;20034;-75
2022/06/24 10:25:08;;;;;;;2.53;1.60;;;;;;;;;;5011805;28;20116;-77
2022/06/24 10:27:58;;;;;;;3.10;1.40;;;;;;;;;;5023411;28;20128;-77
2022/06/24 10:30:58;;;;;;;3.25;1.40;;;;;;;;;;5021076;28;20419;-77
2022/06/24 10:33:27;;;;;;;2.50;1.60;;;;;;;;;;5010096;28;20030;-76
2022/06/24 10:36:04;;;;;;;2.47;1.38;;;;;;;;;;5005453;28;20411;-75
2022/06/24 10:38:42;;;;;;;2.13;1.30;;;;;;;;;;5003012;28;20113;-75
2022/06/24 10:41:11;;;;;;;1.50;1.40;;;;;;;;;;5008216;28;20495;-76
2022/06/24 10:43:36;;;;;;;2.13;1.23;;;;;;;;;;5019145;28;20053;-76
2022/06/24 10:46:10;;;;;;;2.25;1.30;;;;;;;;;;5024085;28;20179;-76
2022/06/24 10:48:44;;;;;;;3.35;1.70;;;;;;;;;;5022468;28;20434;-77
2022/06/24 10:51:12;;;;;;;1.10;1.00;;;;;;;;;;5023117;28;20116;-78
2022/06/24 10:54:09;;;;;;;2.75;1.25;;;;;;;;;;5025078;28;20033;-77
2022/06/24 10:56:42;;;;;;;3.38;1.55;;;;;;;;;;5009490;28;20207;-75
2022/06/24 10:59:07;;;;;;;3.35;1.25;;;;;;;;;;5011635;28;20026;-75
2022/06/24 11:01:33;;;;;;;1.20;1.10;;;;;;;;;;5024735;28;20037;-75
2022/06/24 11:04:04;;;;;;;2.70;1.30;;;;;;;;;;5024615;28;20098;-76
2022/06/24 11:06:30;;;;;;;1.55;1.35;;;;;;;;;;5022440;28;20060;-77
2022/06/24 11:09:05;;;;;;;1.92;1.30;;;;;;;;;;5024105;28;20083;-76
2022/06/24 11:11:31;;;;;;;1.55;1.40;;;;;;;;;;5024137;28;20033;-75
2022/06/24 11:13:56;;;;;;;4.10;1.88;;;;;;;;;;5022736;28;20026;-75
2022/06/24 11:16:27;;;;;;;8.02;3.00;;;;;;;;;;5028532;28;20041;-72
2022/06/24 11:18:52;;;;;;;8.23;3.45;;;;;;;;;;5023226;28;20063;-74
2022/06/24 11:21:18;;;;;;;25.38;5.50;;;;;;;;;;5023617;28;20029;-73
2022/06/24 11:23:46;;;;;;;7.32;3.83;;;;;;;;;;5020278;28;20033;-74
2022/06/24 11:26:17;;;;;;;7.05;4.90;;;;;;;;;;5023307;28;20040;-75
2022/06/24 11:28:48;;;;;;;6.78;4.93;;;;;;;;;;5018575;28;20033;-72
2022/06/24 11:31:19;;;;;;;11.32;4.55;;;;;;;;;;5020271;28;20029;-72
2022/06/24 11:34:05;;;;;;;11.77;7.90;;;;;;;;;;5023324;28;20021;-71
2022/06/24 11:36:32;;;;;;;10.48;6.47;;;;;;;;;;5026807;28;20056;-73
2022/06/24 11:39:02;;;;;;;7.45;4.63;;;;;;;;;;5024559;28;20029;-72
2022/06/24 11:41:28;;;;;;;4.65;2.65;;;;;;;;;;5021060;28;20021;-74
2022/06/24 11:43:54;;;;;;;7.25;4.55;;;;;;;;;;5026601;28;20026;-74
2022/06/24 11:46:19;;;;;;;6.13;3.28;;;;;;;;;;5027703;28;20025;-74
2022/06/24 11:48:44;;;;;;;5.75;3.30;;;;;;;;;;5026640;28;20021;-74
2022/06/24 11:51:17;;;;;;;5.90;3.97;;;;;;;;;;5026158;28;20353;-73
2022/06/24 11:53:54;;;;;;;3.13;2.83;;;;;;;;;;5027726;28;20718;-73
2022/06/24 11:56:19;;;;;;;4.43;2.78;;;;;;;;;;5027538;28;20543;-73
2022/06/24 11:58:44;;;;;;;3.57;2.53;;;;;;;;;;5023506;28;20028;-74
2022/06/24 12:01:11;;;;;;;7.70;2.30;;;;;;;;;;5027732;28;20112;-73
2022/06/24 12:03:36;;;;;;;3.58;2.50;;;;;;;;;;5026226;28;20030;-72
2022/06/24 12:06:01;;;;;;;3.85;2.38;;;;;;;;;;5026108;28;20055;-74
2022/06/24 12:08:26;;;;;;;4.93;2.50;;;;;;;;;;5025188;28;20040;-74
2022/06/24 12:10:53;;;;;;;2.20;1.80;;;;;;;;;;5028415;28;20456;-74
2022/06/24 12:13:29;;;;;;;3.30;3.00;;;;;;;;;;5027980;28;20036;-74
2022/06/24 12:15:56;;;;;;;2.97;2.25;;;;;;;;;;5023384;28;20108;-75
2022/06/24 12:18:23;;;;;;;3.38;2.28;;;;;;;;;;5024118;28;20029;-74
2022/06/24 12:20:57;;;;;;;4.82;2.20;;;;;;;;;;5023436;28;20029;-76
2022/06/24 12:23:22;;;;;;;3.60;1.92;;;;;;;;;;5024983;28;20052;-75
2022/06/24 12:25:49;;;;;;;2.40;2.20;;;;;;;;;;5026135;28;20738;-75
2022/06/24 12:28:25;;;;;;;3.40;1.80;;;;;;;;;;5026114;28;20049;-74
2022/06/24 12:31:11;;;;;;;3.78;2.22;;;;;;;;;;5024234;28;20025;-75
2022/06/24 12:33:49;;;;;;;2.55;1.95;;;;;;;;;;5025319;28;20026;-74
2022/06/24 12:36:17;;;;;;;3.85;2.15;;;;;;;;;;5022708;28;20028;-75
2022/06/24 12:38:45;;;;;;;4.55;2.30;;;;;;;;;;5023735;28;20041;-75
2022/06/24 12:41:15;;;;;;;2.47;2.20;;;;;;;;;;5021452;28;20148;-75
2022/06/24 12:44:00;;;;;;;3.45;2.20;;;;;;;;;;5026459;28;20128;-74
2022/06/24 12:46:37;;;;;;;2.70;2.13;;;;;;;;;;5026705;28;20444;-75
2022/06/24 12:51:57;;;;;;;5.65;2.60;;;;;;;;;;5020211;28;20113;-74
2022/06/24 12:54:22;;;;;;;7.30;3.22;;;;;;;;;;5024239;28;20116;-74
2022/06/24 12:56:48;;;;;;;11.40;3.17;;;;;;;;;;5021113;28;20048;-73
2022/06/24 12:59:13;;;;;;;32.37;5.57;;;;;;;;;;5023965;28;20024;-74
2022/06/24 13:01:44;;;;;;;46.72;4.93;;;;;;;;;;5024034;28;20310;-74
2022/06/24 13:04:12;;;;;;;22.05;4.45;;;;;;;;;;5027342;28;20032;-74
2022/06/24 13:06:37;;;;;;;18.70;4.60;;;;;;;;;;5026192;28;20095;-73
2022/06/24 13:09:05;;;;;;;6.20;3.30;;;;;;;;;;5024470;28;20022;-75
2022/06/24 13:11:30;;;;;;;4.28;3.80;;;;;;;;;;5032411;28;20013;-74
2022/06/24 13:13:56;;;;;;;7.38;5.35;;;;;;;;;;5048271;28;20035;-73
2022/06/24 13:16:21;;;;;;;9.38;6.80;;;;;;;;;;5049765;28;20029;-73
2022/06/24 13:18:47;;;;;;;25.63;8.80;;;;;;;;;;5030255;28;20395;-76
2022/06/24 13:21:14;;;;;;;12.80;8.25;;;;;;;;;;5029816;28;20021;-74
2022/06/24 13:23:39;;;;;;;24.20;9.38;;;;;;;;;;5032160;28;20029;-74
2022/06/24 13:26:04;;;;;;;14.02;8.68;;;;;;;;;;5049629;28;20039;-75
2022/06/24 13:28:29;;;;;;;13.05;8.38;;;;;;;;;;5030669;28;20087;-72
2022/06/24 13:30:55;;;;;;;13.07;7.57;;;;;;;;;;5024244;28;20032;-73
2022/06/24 13:33:20;;;;;;;16.00;9.82;;;;;;;;;;5019336;28;20267;-71
2022/06/24 13:35:45;;;;;;;16.87;10.03;;;;;;;;;;5023133;28;20037;-70
2022/06/24 13:38:10;;;;;;;14.30;9.20;;;;;;;;;;5018991;28;20026;-73
2022/06/24 13:40:36;;;;;;;14.97;9.50;;;;;;;;;;5029379;28;20116;-73
2022/06/24 13:43:01;;;;;;;15.55;10.73;;;;;;;;;;5027806;28;20365;-76
2022/06/24 13:45:26;;;;;;;16.00;9.98;;;;;;;;;;5029292;28;20048;-75
2022/06/24 13:47:51;;;;;;;11.32;8.40;;;;;;;;;;5029109;28;20082;-71
2022/06/24 13:50:17;;;;;;;6.30;4.63;;;;;;;;;;5028949;28;20493;-73
2022/06/24 13:52:42;;;;;;;5.13;3.20;;;;;;;;;;5028226;28;20760;-75
2022/06/24 13:55:07;;;;;;;4.30;2.40;;;;;;;;;;5029024;28;20025;-75
2022/06/24 13:57:33;;;;;;;2.80;2.22;;;;;;;;;;5027243;28;20282;-74
2022/06/24 13:59:59;;;;;;;2.75;2.10;;;;;;;;;;5025538;28;20021;-74
2022/06/24 14:02:24;;;;;;;3.55;1.90;;;;;;;;;;5027712;28;20439;-73
2022/06/24 14:04:49;;;;;;;2.00;1.33;;;;;;;;;;5027572;28;20822;-73
2022/06/24 14:07:15;;;;;;;2.60;1.40;;;;;;;;;;5027852;28;20037;-72
2022/06/24 14:09:40;;;;;;;4.13;1.90;;;;;;;;;;5027659;28;20400;-72
2022/06/24 14:12:06;;;;;;;2.30;1.60;;;;;;;;;;5021393;28;20029;-73
2022/06/24 14:14:31;;;;;;;1.98;1.60;;;;;;;;;;5026086;28;20221;-73
2022/06/24 14:16:57;;;;;;;2.55;1.70;;;;;;;;;;5027642;28;20045;-73
2022/06/24 14:19:22;;;;;;;2.13;1.93;;;;;;;;;;5028148;28;20025;-73
2022/06/24 14:21:47;;;;;;;4.65;2.17;;;;;;;;;;5021366;28;20025;-72
2022/06/24 14:26:56;;;;;;;5.25;2.65;;;;;;;;;;5014279;28;20044;-72
2022/06/24 14:29:21;;;;;;;5.23;2.20;;;;;;;;;;5018022;28;20317;-72
2022/06/24 14:31:47;;;;;;;2.20;2.00;;;;;;;;;;5023255;28;20041;-72
2022/06/24 14:34:12;;;;;;;4.53;2.40;;;;;;;;;;5023787;28;20110;-72
2022/06/24 14:36:37;;;;;;;2.70;2.20;;;;;;;;;;5022526;28;20285;-72
2022/06/24 14:41:46;;;;;;;4.72;2.53;;;;;;;;;;5027658;28;20031;-72
2022/06/24 14:44:11;;;;;;;3.07;2.17;;;;;;;;;;5026157;28;20041;-72
2022/06/24 14:46:37;;;;;;;4.73;2.40;;;;;;;;;;5022123;28;20294;-72
2022/06/24 14:49:02;;;;;;;4.80;2.70;;;;;;;;;;5008190;28;20028;-73
2022/06/24 14:51:27;;;;;;;3.88;2.28;;;;;;;;;;5021661;28;20277;-72
2022/06/24 14:53:52;;;;;;;5.95;2.63;;;;;;;;;;5027680;28;20511;-73
2022/06/24 14:56:18;;;;;;;3.70;2.00;;;;;;;;;;5025448;28;20036;-73
2022/06/24 14:58:43;;;;;;;4.50;1.93;;;;;;;;;;5026699;28;20033;-73
2022/06/24 15:01:08;;;;;;;2.67;1.70;;;;;;;;;;5023509;28;20292;-74
2022/06/24 15:03:34;;;;;;;4.38;2.20;;;;;;;;;;5026741;28;20037;-74